Flight Track Log - Related Links

Times and Time Zones

All times are in EDT time to prevent confusion due to time zone crossing. See the SWA975 flight status page for this flight to view local times or setup timezone preferences in your user account.


Time Position Orientation Groundspeed Altitude Reporting Facility
EDT Latitude Longitude Course Direction KTS MPH feet Rate Location/Type
Sat 06:52:30 PM 31.7992 -106.3386 96° East 176 203 5,300  Level Albuquerque Center
Sat 06:53:01 PM 31.7944 -106.3156 104° East 194 223 5,700 1,967 Climbing Albuquerque Center
Sat 06:53:31 PM 31.7881 -106.2664 99° East 248 285 7,300 2,459 Climbing Albuquerque Center
Sat 06:54:02 PM 31.7875 -106.2189 91° East 252 290 8,200 2,262 Climbing Albuquerque Center
Sat 06:54:32 PM 31.7889 -106.1661 88° East 313 360 9,600 2,323 Climbing Albuquerque Center
Sat 06:55:04 PM 31.7892 -106.1181 90° East 304 350 10,600 2,258 Climbing Albuquerque Center
Sat 06:56:05 PM 31.7872 -106.0031 91° East 349 402 13,100 2,732 Climbing Albuquerque Center
Sat 06:57:07 PM 31.7853 -105.8858 91° East 358 412 16,200 2,537 Climbing Albuquerque Center
Sat 06:58:08 PM 31.7831 -105.7656 91° East 367 422 18,300 2,115 Climbing Albuquerque Center
Sat 06:59:09 PM 31.7800 -105.6392 92° East 385 443 20,500 2,098 Climbing Albuquerque Center
Sat 07:00:11 PM 31.7817 -105.5092 89° East 398 458 22,600 2,000 Climbing Albuquerque Center
Sat 07:01:12 PM 31.7892 -105.3758 86° East 407 468 24,600 1,770 Climbing Albuquerque Center
Sat 07:02:13 PM 31.7953 -105.2406 87° East 412 474 26,200 1,610 Climbing Albuquerque Center
Sat 07:03:15 PM 31.8031 -105.0703 87° East 427 491 27,900 1,415 Climbing Albuquerque Center
Sat 07:04:16 PM 31.8103 -104.9256 87° East 438 504 29,100 1,073 Climbing Albuquerque Center
Sat 07:05:18 PM 31.8181 -104.7753 86° East 452 520 30,100 1,024 Climbing Albuquerque Center
Sat 07:06:19 PM 31.8244 -104.6217 87° East 463 533 31,200 1,082 Climbing Albuquerque Center
Sat 07:07:20 PM 31.8306 -104.4647 87° East 475 547 32,300 1,122 Climbing Albuquerque Center
Sat 07:08:22 PM 31.8375 -104.3081 87° East 479 551 33,500 1,171 Climbing Albuquerque Center
Sat 07:09:23 PM 31.8503 -104.1506 85° East 483 556 34,700 738 Climbing Albuquerque Center
Sat 07:10:24 PM 31.8617 -103.9958 85° East 478 550 35,000 195 Climbing Albuquerque Center
Sat 07:11:26 PM 31.8731 -103.8256 85° East 483 556 35,100 49 Climbing Albuquerque Center
Sat 07:12:27 PM 31.8850 -103.6686 85° East 485 558 35,100  Level Albuquerque Center
Sat 07:13:28 PM 31.8953 -103.5106 86° East 486 559 35,100  Level Albuquerque Center
Sat 07:14:30 PM 31.9064 -103.3525 85° East 487 560 35,100  Level Albuquerque Center
Sat 07:15:31 PM 31.9172 -103.1925 85° East 490 564 35,100 -49 Level Albuquerque Center
Sat 07:16:32 PM 31.9292 -103.0064 86° East 490 564 35,000 -49 Descending Albuquerque Center
Sat 07:17:34 PM 31.9389 -102.8453 86° East 492 566 35,000  Level Albuquerque Center
Sat 07:18:33 PM 31.9503 -102.6819 85° East 483 556 35,000  Level Fort Worth Center
Sat 07:19:33 PM 31.9592 -102.5233 86° East 483 556 35,000  Level Fort Worth Center
Sat 07:20:33 PM 31.9694 -102.3672 86° East 477 549 35,000  Level Fort Worth Center
Sat 07:21:33 PM 31.9817 -102.2111 85° East 477 549 35,000  Level Fort Worth Center
Sat 07:22:33 PM 31.9900 -102.0497 86° East 477 549 35,000  Level Fort Worth Center
Sat 07:23:33 PM 31.9978 -101.8936 87° East 477 549 35,000  Level Fort Worth Center
Sat 07:24:33 PM 32.0075 -101.7322 86° East 482 555 35,000  Level Fort Worth Center
Sat 07:25:33 PM 32.0150 -101.5711 87° East 482 555 35,000  Level Fort Worth Center
Sat 07:26:33 PM 32.0244 -101.4122 86° East 482 555 35,000  Level Fort Worth Center
Sat 07:27:33 PM 32.0294 -101.2458 88° East 487 560 35,000  Level Fort Worth Center
Sat 07:28:33 PM 32.0383 -101.0894 86° East 487 560 35,000 50 Level Fort Worth Center
Sat 07:29:33 PM 32.0472 -100.9281 86° East 487 560 35,100 50 Climbing Fort Worth Center
Sat 07:30:33 PM 32.0539 -100.7642 87° East 492 566 35,100  Level Fort Worth Center
Sat 07:31:33 PM 32.0600 -100.6000 87° East 497 572 35,100  Level Fort Worth Center
Sat 07:32:33 PM 32.0683 -100.4386 86° East 497 572 35,100  Level Fort Worth Center
Sat 07:33:33 PM 32.0764 -100.2722 87° East 497 572 35,100  Level Fort Worth Center
Sat 07:34:33 PM 32.0822 -100.1056 88° East 497 572 35,100  Level Fort Worth Center
Sat 07:35:33 PM 32.0961 -99.9392 84° East 502 578 35,100  Level Fort Worth Center
Sat 07:36:33 PM 32.1097 -99.7703 85° East 507 583 35,100  Level Fort Worth Center
Sat 07:37:33 PM 32.1231 -99.6039 85° East 507 583 35,100  Level Fort Worth Center
Sat 07:38:33 PM 32.1386 -99.4325 84° East 513 590 35,100 -50 Level Fort Worth Center
Sat 07:39:33 PM 32.1494 -99.2658 86° East 518 596 35,000  Descending Fort Worth Center
Sat 07:40:33 PM 32.1644 -99.0944 84° East 518 596 35,100 -50 Climbing Fort Worth Center
Sat 07:41:33 PM 32.1769 -98.9278 85° East 518 596 34,900 -1,550 Descending Fort Worth Center
Sat 07:42:33 PM 32.1872 -98.7611 86° East 518 596 32,000 -2,750 Descending Fort Worth Center
Sat 07:43:33 PM 32.2014 -98.5944 84° East 518 596 29,400 -2,750 Descending Fort Worth Center
Sat 07:44:33 PM 32.2153 -98.4422 84° East 497 572 26,500 -2,600 Descending Fort Worth Center
Sat 07:45:33 PM 32.2269 -98.2878 85° East 474 545 24,200 -2,250 Descending Fort Worth Center
Sat 07:46:33 PM 32.2361 -98.1428 86° East 451 519 22,000 -2,250 Descending Fort Worth Center
Sat 07:47:33 PM 32.2433 -98.0053 86° East 429 494 19,700 -2,100 Descending Fort Worth Center
Sat 07:48:33 PM 32.2542 -97.8753 84° East 409 471 17,800 -2,050 Descending Fort Worth Center
Sat 07:49:33 PM 32.2631 -97.7475 85° East 396 456 15,600 -2,100 Descending Fort Worth Center
Sat 07:50:33 PM 32.2694 -97.6272 86° East 384 442 13,600 -1,850 Descending Fort Worth Center
Sat 07:51:33 PM 32.2822 -97.5092 83° East 366 421 11,900 -1,300 Descending Fort Worth Center
Sat 07:52:33 PM 32.3428 -97.4233 50° Northeast 332 382 11,000 -950 Descending Fort Worth Center
Sat 07:53:33 PM 32.3844 -97.3347 61° Northeast 311 358 10,000 -1,000 Descending Fort Worth Center
Sat 07:54:33 PM 32.4075 -97.2386 74° East 306 352 9,000 -1,100 Descending Fort Worth Center
Sat 07:55:33 PM 32.4572 -97.1622 52° Northeast 290 334 7,800 -1,250 Descending Fort Worth Center
Sat 07:56:33 PM 32.5094 -97.0956 47° Northeast 280 322 6,500 -1,350 Descending Fort Worth Center
Sat 07:57:33 PM 32.5614 -97.0339 45° Northeast 270 311 5,100 -1,350 Descending Fort Worth Center
Sat 07:58:33 PM 32.6156 -96.9719 44° Northeast 265 305 3,800 -970 Descending Fort Worth Center
Sat 07:59:12 PM 32.6500 -96.9333 43° Northeast 224 258 3,500 -485 Descending Dallas / Fort Worth TRACON
Sat 08:00:12 PM 32.6833 -96.8833 52° Northeast 196 226 3,000 -446 Descending Dallas / Fort Worth TRACON
Sat 08:01:13 PM 32.7167 -96.8333 52° Northeast 186 214 2,600 -446 Descending Dallas / Fort Worth TRACON
Sat 08:02:13 PM 32.7500 -96.8000 40° Northeast 166 191 2,100 -476 Descending Dallas / Fort Worth TRACON
Sat 08:03:19 PM 32.8000 -96.8000 360° North 138 159 1,600 -619 Descending Dallas / Fort Worth TRACON
Sat 08:04:19 PM 32.8167 -96.8333 301° West 142 163 800 -800 Descending Dallas / Fort Worth TRACON
Sat 08:06:00 PM 32.8333 -96.8500 26° Northeast  Level FlightAware Approximate
Sat 08:13:00 PM 32.8471 -96.8518 26° Northeast  Level Estimated

Login

Don't have an account? Register now (free) for customized features, flight alerts, and more!